createdAt,value
2019-04-09T00:01:02.540Z,16.00
2019-04-09T00:03:33.848Z,16.30
2019-04-09T00:06:00.764Z,16.50
2019-04-09T00:08:27.426Z,16.07
2019-04-09T00:10:54.174Z,15.67
2019-04-09T00:13:21.426Z,14.70
2019-04-09T00:15:48.158Z,14.53
2019-04-09T00:18:15.919Z,15.60
2019-04-09T00:20:43.156Z,15.13
2019-04-09T00:23:10.183Z,15.03
2019-04-09T00:25:37.140Z,14.53
2019-04-09T00:28:05.587Z,14.00
2019-04-09T00:30:33.312Z,14.37
2019-04-09T00:33:00.268Z,14.60
2019-04-09T00:35:26.968Z,15.53
2019-04-09T00:37:54.029Z,14.23
2019-04-09T00:40:20.697Z,15.50
2019-04-09T00:42:47.408Z,14.20
2019-04-09T00:45:14.186Z,15.30
2019-04-09T00:47:41.092Z,15.83
2019-04-09T00:50:08.360Z,14.43
2019-04-09T00:52:36.273Z,15.73
2019-04-09T00:55:04.280Z,14.90
2019-04-09T00:57:31.206Z,14.90
2019-04-09T01:00:01.225Z,15.70
2019-04-09T01:02:28.842Z,15.50
2019-04-09T01:04:58.364Z,15.10
2019-04-09T01:07:25.190Z,14.33
2019-04-09T01:09:52.292Z,15.70
2019-04-09T01:12:19.328Z,14.50
2019-04-09T01:14:46.645Z,14.30
2019-04-09T01:17:16.909Z,15.27
2019-04-09T01:19:44.440Z,14.30
2019-04-09T01:22:13.245Z,15.43
2019-04-09T01:24:45.702Z,15.37
2019-04-09T01:27:20.590Z,14.50
2019-04-09T01:29:53.144Z,16.10
2019-04-09T01:32:33.367Z,15.20
2019-04-09T01:35:37.792Z,14.90
2019-04-09T01:38:18.630Z,13.87
2019-04-09T01:40:52.558Z,14.60
2019-04-09T01:43:36.825Z,13.40
2019-04-09T01:46:12.648Z,13.50
2019-04-09T01:48:57.486Z,13.50
2019-04-09T01:51:31.115Z,13.80
2019-04-09T01:54:12.792Z,18.17
2019-04-09T01:56:52.438Z,18.47
2019-04-09T01:59:42.797Z,22.07
2019-04-09T02:02:42.055Z,25.73
2019-04-09T02:05:40.782Z,25.53
2019-04-09T02:08:26.211Z,27.27
2019-04-09T02:11:19.959Z,27.17
2019-04-09T02:14:00.853Z,26.83
2019-04-09T02:16:56.234Z,26.60
2019-04-09T02:19:38.151Z,26.73
2019-04-09T02:22:12.509Z,25.80
2019-04-09T02:24:56.560Z,25.30
2019-04-09T02:27:52.690Z,26.47
2019-04-09T02:30:55.292Z,27.27
2019-04-09T02:34:00.803Z,26.70
2019-04-09T02:36:38.739Z,27.23
2019-04-09T02:39:40.370Z,28.17
2019-04-09T02:42:45.729Z,26.20
2019-04-09T02:48:12.689Z,21.80
2019-04-09T02:50:57.622Z,20.07
2019-04-09T02:53:33.785Z,18.53
2019-04-09T02:56:25.041Z,18.47
2019-04-09T02:59:14.404Z,17.30
2019-04-09T03:01:55.792Z,18.07
2019-04-09T03:04:33.210Z,18.03
2019-04-09T03:07:18.372Z,16.47
2019-04-09T03:10:01.880Z,16.83
2019-04-09T03:12:49.769Z,17.00
2019-04-09T03:15:38.448Z,18.47
2019-04-09T03:18:20.836Z,17.80
2019-04-09T03:21:17.479Z,17.47
2019-04-09T03:23:58.091Z,18.80
2019-04-09T03:26:36.874Z,17.13
2019-04-09T03:29:14.461Z,19.63
2019-04-09T03:31:51.948Z,19.00
2019-04-09T03:34:28.421Z,18.83
2019-04-09T03:37:15.254Z,18.97
2019-04-09T03:40:09.563Z,18.40
2019-04-09T03:42:46.723Z,18.60
2019-04-09T03:45:31.865Z,20.40
2019-04-09T03:48:21.560Z,20.53
2019-04-09T03:51:10.877Z,28.27
2019-04-09T03:54:00.264Z,30.00
2019-04-09T03:56:59.199Z,30.43
2019-04-09T03:59:37.647Z,33.10
2019-04-09T04:02:36.148Z,30.90
2019-04-09T04:05:18.100Z,29.90
2019-04-09T04:08:13.637Z,29.47
2019-04-09T04:10:58.521Z,29.80
2019-04-09T04:14:00.035Z,31.90
2019-04-09T04:16:45.000Z,29.87
2019-04-09T04:19:21.408Z,30.37
2019-04-09T04:22:00.274Z,31.83
2019-04-09T04:24:49.543Z,30.67
2019-04-09T04:27:34.266Z,31.30
2019-04-09T04:30:30.186Z,30.57
2019-04-09T04:33:07.458Z,30.90
2019-04-09T04:35:58.198Z,32.13
2019-04-09T04:38:45.529Z,32.83
2019-04-09T04:41:34.773Z,33.60
2019-04-09T04:44:25.854Z,30.97
2019-04-09T04:47:16.238Z,32.63
2019-04-09T04:49:53.893Z,32.37
2019-04-09T04:52:43.854Z,33.13
2019-04-09T04:55:50.932Z,33.93
2019-04-09T04:58:38.335Z,32.67
2019-04-09T05:01:09.777Z,33.33
2019-04-09T05:03:57.397Z,31.17
2019-04-09T05:06:43.291Z,32.97
2019-04-09T05:09:18.728Z,31.10
2019-04-09T05:12:08.049Z,30.50
2019-04-09T05:14:57.587Z,30.00
2019-04-09T05:17:51.058Z,31.50
2019-04-09T05:20:37.494Z,33.90
2019-04-09T05:23:36.060Z,31.60
2019-04-09T05:26:13.863Z,29.57
2019-04-09T05:29:05.703Z,30.97
2019-04-09T05:31:52.613Z,29.80
2019-04-09T05:34:40.059Z,29.60
2019-04-09T05:37:41.830Z,29.10
2019-04-09T05:40:23.733Z,28.67
2019-04-09T05:42:59.486Z,29.77
2019-04-09T05:45:51.541Z,29.07
2019-04-09T05:48:31.528Z,30.60
2019-04-09T05:51:21.467Z,30.60
2019-04-09T05:53:55.319Z,28.67
2019-04-09T05:56:41.136Z,29.47
2019-04-09T05:59:27.018Z,30.53
2019-04-09T06:02:14.203Z,30.90
2019-04-09T06:04:54.271Z,30.90
2019-04-09T06:07:29.489Z,30.70
2019-04-09T06:09:57.524Z,34.00
2019-04-09T06:12:28.882Z,31.77
2019-04-09T06:14:56.822Z,30.57
2019-04-09T06:17:23.647Z,31.30
2019-04-09T06:19:50.562Z,30.37
2019-04-09T06:22:17.321Z,30.13
2019-04-09T06:24:45.124Z,31.40
2019-04-09T06:27:12.708Z,29.50
2019-04-09T06:29:41.912Z,31.73
2019-04-09T06:32:16.435Z,29.87
2019-04-09T06:34:51.971Z,30.30
2019-04-09T06:37:37.624Z,28.70
2019-04-09T06:40:34.702Z,30.13
2019-04-09T06:43:21.275Z,32.20
2019-04-09T06:46:05.830Z,31.20
2019-04-09T06:49:08.171Z,30.97
2019-04-09T06:52:14.287Z,31.80
2019-04-09T06:55:13.661Z,30.80
2019-04-09T06:58:03.104Z,31.90
2019-04-09T07:00:50.921Z,33.27
2019-04-09T07:03:43.414Z,31.57
2019-04-09T07:06:45.140Z,30.73
2019-04-09T07:09:31.686Z,33.20
2019-04-09T07:12:16.948Z,33.33
2019-04-09T07:15:03.013Z,30.57
2019-04-09T07:17:54.379Z,30.53
2019-04-09T07:20:55.929Z,31.90
2019-04-09T07:23:48.131Z,32.60
2019-04-09T07:26:34.055Z,33.20
2019-04-09T07:29:21.742Z,33.87
2019-04-09T07:32:15.195Z,33.10
2019-04-09T07:34:57.986Z,32.90
2019-04-09T07:37:44.516Z,33.20
2019-04-09T07:40:36.467Z,33.57
2019-04-09T07:43:37.335Z,35.30
2019-04-09T07:46:37.529Z,34.67
2019-04-09T07:49:09.925Z,34.30
2019-04-09T07:51:50.942Z,34.03
2019-04-09T07:54:45.975Z,35.30
2019-04-09T07:57:24.100Z,35.50
2019-04-09T08:00:14.425Z,34.33
2019-04-09T08:02:56.242Z,35.43
2019-04-09T08:05:43.881Z,34.90
2019-04-09T08:08:32.883Z,35.47
2019-04-09T08:11:17.937Z,35.33
2019-04-09T08:14:17.826Z,36.57
2019-04-09T08:17:17.436Z,36.47
2019-04-09T08:20:08.425Z,36.23
2019-04-09T08:22:55.030Z,36.70
2019-04-09T08:25:32.187Z,35.87
2019-04-09T08:28:37.609Z,36.37
2019-04-09T08:31:26.599Z,37.87
2019-04-09T08:34:13.097Z,35.70
2019-04-09T08:36:55.666Z,40.10
2019-04-09T08:39:41.573Z,35.53
2019-04-09T08:42:30.962Z,35.60
2019-04-09T08:45:07.475Z,35.33
2019-04-09T08:47:52.962Z,34.67
2019-04-09T08:50:43.224Z,35.73
2019-04-09T08:53:39.646Z,33.67
2019-04-09T08:56:21.048Z,35.20
2019-04-09T08:59:07.452Z,31.40
2019-04-09T09:02:01.625Z,33.30
2019-04-09T09:04:48.423Z,32.93
2019-04-09T09:07:18.343Z,33.23
2019-04-09T09:10:05.661Z,33.17
2019-04-09T09:12:43.504Z,34.90
2019-04-09T09:15:33.907Z,34.40
2019-04-09T09:18:09.717Z,31.80
2019-04-09T09:21:15.756Z,33.13
2019-04-09T09:23:58.429Z,31.80
2019-04-09T09:26:44.147Z,34.40
2019-04-09T09:29:28.428Z,34.50
2019-04-09T09:32:05.345Z,31.80
2019-04-09T09:34:56.101Z,33.30
2019-04-09T09:37:47.881Z,33.87
2019-04-09T09:40:33.866Z,33.23
2019-04-09T09:43:23.540Z,30.50
2019-04-09T09:46:09.040Z,32.10
2019-04-09T09:49:08.356Z,33.70
2019-04-09T09:51:54.302Z,34.17
2019-04-09T09:54:39.537Z,33.37
2019-04-09T09:57:30.347Z,32.57
2019-04-09T10:00:15.883Z,32.37
2019-04-09T10:02:58.633Z,33.20
2019-04-09T10:05:37.588Z,32.33
2019-04-09T10:08:23.619Z,33.23
2019-04-09T10:11:11.206Z,31.03
2019-04-09T10:14:03.708Z,32.00
2019-04-09T10:17:08.667Z,31.33
2019-04-09T10:20:44.051Z,33.23
2019-04-09T10:23:29.345Z,33.37
2019-04-09T10:26:07.151Z,32.60
2019-04-09T10:28:59.188Z,33.80
2019-04-09T10:31:48.958Z,32.67
2019-04-09T10:34:36.451Z,34.60
2019-04-09T10:37:21.610Z,33.30
2019-04-09T10:40:21.764Z,32.70
2019-04-09T10:43:15.814Z,31.10
2019-04-09T10:46:02.468Z,33.57
2019-04-09T10:48:51.394Z,33.60
2019-04-09T10:51:36.117Z,33.80
2019-04-09T10:54:23.549Z,32.77
2019-04-09T10:57:11.240Z,33.00
2019-04-09T10:59:47.129Z,31.90
2019-04-09T11:02:35.076Z,32.90
2019-04-09T11:05:24.341Z,33.27
2019-04-09T11:08:11.521Z,33.33
2019-04-09T11:10:48.690Z,33.47
2019-04-09T11:13:25.695Z,31.90
2019-04-09T11:16:10.823Z,31.40
2019-04-09T11:18:54.116Z,34.17
2019-04-09T11:21:42.474Z,33.93
2019-04-09T11:24:33.882Z,34.03
2019-04-09T11:27:20.532Z,34.73
2019-04-09T11:30:16.070Z,33.00
2019-04-09T11:33:06.601Z,33.80
2019-04-09T11:35:54.838Z,30.53
2019-04-09T11:38:40.576Z,32.50
2019-04-09T11:41:30.709Z,32.10
2019-04-09T11:44:23.043Z,30.73
2019-04-09T11:47:10.802Z,31.60
2019-04-09T11:49:56.634Z,31.33
2019-04-09T11:52:43.084Z,28.97
2019-04-09T11:55:41.679Z,30.73
2019-04-09T11:58:18.176Z,30.80
2019-04-09T12:00:52.501Z,28.97
2019-04-09T12:03:37.615Z,27.77
2019-04-09T12:06:25.033Z,27.53
2019-04-09T12:09:16.344Z,27.70
2019-04-09T12:12:18.114Z,27.23
2019-04-09T12:15:02.674Z,28.47
2019-04-09T12:17:43.238Z,20.57
2019-04-09T12:20:24.268Z,22.90
2019-04-09T12:23:14.183Z,20.37
2019-04-09T12:25:52.664Z,20.37
2019-04-09T12:28:45.615Z,16.70
2019-04-09T12:31:36.453Z,19.70
2019-04-09T12:34:19.067Z,21.13
2019-04-09T12:37:01.565Z,20.00
2019-04-09T12:39:38.111Z,20.43
2019-04-09T12:42:19.725Z,21.30
2019-04-09T12:45:06.651Z,22.07
2019-04-09T12:47:46.216Z,21.60
2019-04-09T12:50:38.465Z,22.77
2019-04-09T12:53:32.656Z,20.40
2019-04-09T12:56:20.738Z,20.43
2019-04-09T12:58:54.881Z,20.43
2019-04-09T13:01:34.925Z,19.03
2019-04-09T13:04:23.964Z,21.40
2019-04-09T13:07:07.687Z,20.60
2019-04-09T13:09:57.512Z,19.70
2019-04-09T13:12:44.447Z,17.07
2019-04-09T13:18:31.933Z,17.23
2019-04-09T13:21:13.059Z,18.57
2019-04-09T13:23:58.092Z,19.20
2019-04-09T13:26:38.387Z,17.27
2019-04-09T13:29:31.305Z,18.57
2019-04-09T13:32:21.599Z,17.07
2019-04-09T13:35:06.113Z,17.40
2019-04-09T13:37:49.564Z,18.37
2019-04-09T13:40:21.249Z,17.37
2019-04-09T13:43:03.268Z,19.03
2019-04-09T13:45:38.103Z,19.00
2019-04-09T13:48:18.564Z,20.70
2019-04-09T13:51:07.757Z,18.70
2019-04-09T13:53:35.561Z,18.40
2019-04-09T13:56:03.058Z,17.23
2019-04-09T13:58:30.854Z,17.30
2019-04-09T14:00:59.576Z,19.00
2019-04-09T14:03:39.475Z,19.00
2019-04-09T14:06:06.519Z,17.77
2019-04-09T14:08:33.682Z,17.20
2019-04-09T14:11:01.739Z,16.90
2019-04-09T14:13:29.109Z,17.30
2019-04-09T14:15:56.112Z,18.10
2019-04-09T14:18:24.258Z,18.67
2019-04-09T14:20:53.920Z,17.10
2019-04-09T14:23:28.020Z,18.50
2019-04-09T14:25:56.018Z,20.23
2019-04-09T14:28:23.940Z,19.27
2019-04-09T14:30:51.111Z,18.83
2019-04-09T14:33:19.364Z,20.70
2019-04-09T14:35:46.327Z,20.50
2019-04-09T14:38:15.593Z,21.33
2019-04-09T14:40:42.339Z,21.40
2019-04-09T14:43:12.141Z,21.70
2019-04-09T14:45:40.668Z,21.40
2019-04-09T14:48:12.873Z,21.10
2019-04-09T14:50:42.900Z,21.50
2019-04-09T14:53:14.422Z,21.70
2019-04-09T14:55:42.836Z,22.80
2019-04-09T14:58:11.554Z,23.13
2019-04-09T15:00:42.554Z,22.60
2019-04-09T15:03:17.691Z,22.87
2019-04-09T15:05:39.026Z,25.60
2019-04-09T15:08:05.897Z,22.07
2019-04-09T15:10:33.782Z,24.37
2019-04-09T15:13:00.901Z,25.60
2019-04-09T15:15:27.806Z,26.17
2019-04-09T15:17:55.029Z,25.10
2019-04-09T15:20:25.052Z,26.43
2019-04-09T15:22:51.481Z,23.90
2019-04-09T15:25:25.130Z,25.20
2019-04-09T15:27:56.319Z,25.50
2019-04-09T15:30:23.538Z,24.93
2019-04-09T15:32:50.598Z,25.27
2019-04-09T15:35:18.343Z,25.63
2019-04-09T15:37:46.109Z,25.13
2019-04-09T15:40:19.566Z,25.00
2019-04-09T15:42:46.902Z,27.07
2019-04-09T15:45:14.422Z,23.90
2019-04-09T15:47:41.404Z,25.40
2019-04-09T15:50:08.706Z,24.77
2019-04-09T15:52:40.681Z,23.77
2019-04-09T15:55:10.757Z,26.83
2019-04-09T15:57:37.835Z,28.37
2019-04-09T16:00:05.589Z,25.87
2019-04-09T16:02:35.133Z,27.57
2019-04-09T16:05:02.246Z,27.37
2019-04-09T16:07:29.104Z,27.67
2019-04-09T16:09:56.197Z,26.33
2019-04-09T16:12:23.103Z,25.00
2019-04-09T16:14:50.076Z,24.00
2019-04-09T16:17:17.258Z,27.20
2019-04-09T16:19:44.175Z,27.70
2019-04-09T16:22:11.520Z,24.53
2019-04-09T16:24:38.465Z,27.00
2019-04-09T16:27:05.719Z,23.63
2019-04-09T16:29:32.956Z,25.33
2019-04-09T16:32:03.598Z,24.20
2019-04-09T16:34:30.828Z,24.17
2019-04-09T16:37:07.807Z,25.60
2019-04-09T16:39:26.230Z,25.77
2019-04-09T16:41:53.032Z,24.60
2019-04-09T16:44:22.179Z,23.90
2019-04-09T16:46:49.405Z,23.60
2019-04-09T16:49:17.003Z,24.37
2019-04-09T16:51:43.825Z,27.00
2019-04-09T16:54:11.660Z,24.73
2019-04-09T16:56:38.586Z,24.03
2019-04-09T16:59:06.395Z,22.20
2019-04-09T17:01:33.873Z,22.77
2019-04-09T17:04:13.311Z,23.07
2019-04-09T17:06:31.017Z,20.37
2019-04-09T17:08:58.105Z,21.00
2019-04-09T17:11:24.887Z,21.20
2019-04-09T17:13:51.623Z,22.03
2019-04-09T17:16:22.494Z,21.33
2019-04-09T17:18:49.391Z,21.87
2019-04-09T17:21:17.216Z,20.27
2019-04-09T17:23:44.074Z,20.63
2019-04-09T17:26:13.646Z,20.00
2019-04-09T17:28:40.681Z,22.60
2019-04-09T17:31:07.454Z,21.50
2019-04-09T17:33:34.931Z,21.27
2019-04-09T17:36:02.499Z,22.20
2019-04-09T17:38:30.041Z,21.97
2019-04-09T17:40:56.749Z,23.17
2019-04-09T17:43:23.988Z,21.37
2019-04-09T17:45:51.558Z,22.77
2019-04-09T17:48:18.285Z,23.30
2019-04-09T17:50:46.538Z,26.17
2019-04-09T17:53:13.368Z,21.57
2019-04-09T17:55:41.272Z,23.30
2019-04-09T17:58:08.761Z,22.60
2019-04-09T18:00:35.697Z,23.30
2019-04-09T18:03:02.813Z,24.67
2019-04-09T18:05:30.649Z,23.20
2019-04-09T18:07:58.553Z,22.87
2019-04-09T18:10:26.456Z,21.70
2019-04-09T18:12:54.899Z,23.90
2019-04-09T18:15:21.667Z,40.30
2019-04-09T18:17:49.359Z,21.30
2019-04-09T18:20:17.288Z,22.33
2019-04-09T18:22:45.509Z,22.60
2019-04-09T18:25:13.660Z,23.50
2019-04-09T18:27:41.396Z,22.30
2019-04-09T18:30:09.590Z,22.10
2019-04-09T18:32:36.846Z,22.30
2019-04-09T18:35:07.012Z,22.10
2019-04-09T18:37:34.459Z,22.83
2019-04-09T18:40:01.428Z,23.67
2019-04-09T18:42:28.261Z,24.10
2019-04-09T18:44:57.040Z,25.87
2019-04-09T18:47:24.065Z,23.40
2019-04-09T18:49:51.305Z,24.27
2019-04-09T18:52:19.547Z,25.33
2019-04-09T18:54:46.532Z,26.17
2019-04-09T18:57:14.194Z,24.67
2019-04-09T18:59:41.483Z,25.70
2019-04-09T19:02:12.509Z,24.43
2019-04-09T19:04:39.593Z,25.13
2019-04-09T19:07:08.333Z,25.43
2019-04-09T19:09:36.553Z,24.60
2019-04-09T19:12:04.545Z,23.50
2019-04-09T19:14:32.298Z,24.10
2019-04-09T19:16:59.074Z,25.67
2019-04-09T19:19:26.676Z,25.67
2019-04-09T19:21:53.676Z,23.80
2019-04-09T19:24:20.383Z,26.90
2019-04-09T19:26:47.113Z,25.10
2019-04-09T19:29:14.809Z,24.07
2019-04-09T19:31:46.170Z,24.03
2019-04-09T19:34:13.119Z,24.00
2019-04-09T19:36:40.858Z,23.37
2019-04-09T19:39:08.033Z,24.70
2019-04-09T19:41:38.423Z,24.13
2019-04-09T19:44:12.665Z,24.03
2019-04-09T19:46:41.749Z,23.60
2019-04-09T19:49:08.650Z,24.10
2019-04-09T19:51:35.567Z,23.00
2019-04-09T19:54:02.965Z,24.47
2019-04-09T19:56:31.667Z,23.63
2019-04-09T19:59:00.719Z,23.87
2019-04-09T20:01:32.352Z,24.87
2019-04-09T20:04:03.845Z,26.50
2019-04-09T20:06:31.890Z,26.17
2019-04-09T20:09:11.445Z,24.97
2019-04-09T20:11:39.567Z,27.03
2019-04-09T20:14:18.635Z,25.60
2019-04-09T20:16:47.676Z,26.40
2019-04-09T20:19:18.599Z,27.00
2019-04-09T20:21:56.903Z,26.50
2019-04-09T20:24:24.804Z,25.73
2019-04-09T20:26:52.918Z,25.50
2019-04-09T20:29:22.311Z,26.80
2019-04-09T20:31:53.394Z,27.30
2019-04-09T20:34:20.338Z,28.47
2019-04-09T20:36:49.891Z,27.07
2019-04-09T20:39:29.779Z,27.20
2019-04-09T20:41:46.738Z,26.53
2019-04-09T20:44:13.623Z,28.90
2019-04-09T20:46:40.460Z,27.40
2019-04-09T20:49:08.083Z,28.47
2019-04-09T20:51:35.000Z,29.30
2019-04-09T20:54:02.618Z,29.20
2019-04-09T20:56:29.378Z,29.80
2019-04-09T20:59:38.410Z,27.80
2019-04-09T21:02:10.233Z,29.40
2019-04-09T21:04:41.799Z,28.67
2019-04-09T21:07:09.470Z,29.60
2019-04-09T21:09:37.285Z,28.00
2019-04-09T21:12:04.577Z,28.27
2019-04-09T21:14:32.205Z,29.30
2019-04-09T21:16:59.440Z,29.30
2019-04-09T21:19:28.470Z,31.20
2019-04-09T21:21:57.526Z,29.20
2019-04-09T21:24:27.003Z,28.87
2019-04-09T21:26:54.592Z,29.53
2019-04-09T21:29:24.208Z,30.60
2019-04-09T21:31:51.775Z,29.87
2019-04-09T21:34:19.569Z,30.50
2019-04-09T21:36:47.131Z,30.00
2019-04-09T21:39:15.088Z,29.37
2019-04-09T21:41:41.931Z,28.87
2019-04-09T21:44:08.940Z,27.97
2019-04-09T21:46:36.097Z,28.50
2019-04-09T21:49:03.471Z,26.47
2019-04-09T21:51:31.510Z,27.27
2019-04-09T21:54:01.341Z,24.20
2019-04-09T21:56:28.006Z,24.43
2019-04-09T21:58:55.384Z,25.10
2019-04-09T22:01:22.986Z,25.33
2019-04-09T22:03:50.601Z,24.63
2019-04-09T22:06:26.872Z,25.63
2019-04-09T22:08:46.622Z,25.23
2019-04-09T22:11:14.012Z,24.83
2019-04-09T22:13:41.694Z,24.40
2019-04-09T22:16:09.555Z,23.77
2019-04-09T22:18:37.584Z,23.70
2019-04-09T22:21:05.723Z,24.53
2019-04-09T22:23:41.690Z,24.33
2019-04-09T22:26:01.690Z,24.60
2019-04-09T22:28:28.476Z,25.07
2019-04-09T22:30:55.231Z,24.73
2019-04-09T22:33:22.280Z,24.70
2019-04-09T22:35:49.420Z,27.40
2019-04-09T22:38:18.316Z,25.47
2019-04-09T22:40:45.789Z,26.43
2019-04-09T22:43:12.803Z,26.80
2019-04-09T22:45:39.876Z,25.90
2019-04-09T22:48:08.227Z,27.70
2019-04-09T22:50:35.471Z,27.33
2019-04-09T22:53:02.190Z,26.13
2019-04-09T22:55:30.082Z,27.13
2019-04-09T22:57:58.136Z,27.83
2019-04-09T23:00:49.138Z,28.70
2019-04-09T23:03:51.429Z,26.50
2019-04-09T23:06:52.998Z,26.20
2019-04-09T23:09:47.496Z,25.17
2019-04-09T23:12:41.714Z,25.97
2019-04-09T23:15:21.239Z,26.43
2019-04-09T23:17:48.592Z,25.47
2019-04-09T23:20:16.589Z,23.80
2019-04-09T23:22:44.629Z,24.07
2019-04-09T23:25:12.571Z,22.20
2019-04-09T23:27:39.440Z,21.70
2019-04-09T23:30:06.187Z,22.40
2019-04-09T23:32:33.879Z,23.67
2019-04-09T23:35:00.945Z,23.13
2019-04-09T23:37:30.117Z,25.17
2019-04-09T23:40:02.690Z,28.37
2019-04-09T23:42:32.793Z,40.50
2019-04-09T23:44:59.833Z,40.90
2019-04-09T23:47:26.951Z,43.63
2019-04-09T23:49:58.262Z,46.50
2019-04-09T23:52:25.088Z,45.73
2019-04-09T23:54:51.822Z,44.80
2019-04-09T23:57:18.952Z,44.83
2019-04-09T23:59:46.311Z,43.47
